Arcola, Illinois
Current Conditions -  °F | °C
As of 6:53 PM on Tuesday 27 Jan 2015 (Local Time) from KMTO Reporting Station
Scattered Clouds Scattered Clouds  
Wind Chill: 22°   Ceiling: Unl
Heat Index: 28°   Visibility: 9mi
Dew Point: 23°   Wind: 6mph
Humidity: 81%   Direction: 30°NNE
Pressure: 30.23"   Gusts: NA
Location:  39.68°N, 88.31°W
Report Text: KMTO 280053Z AUTO 03005KT 9SM SCT020 M02/M05 A3023 RMK AO2 SLP246 T10221050
Loading
Personal Weather Stations






























Interactive Weather Map New forecast layout! Learn more

10-Day Weather Forecast

Advertisements
Track Severe Weather on mobile